Time;durP1;ratioP1;P1;durP2;ratioP2;P2;SDS_P1;SDS_P2;PMS_P1;PMS_P2;Temp;Humidity;BMP_temperature;BMP_pressure;BME280_temperature;BME280_humidity;BME280_pressure;Samples;Min_cycle;Max_cycle;Signal;HPM_P1;HPM_P2
2022/06/16 00:01:39;;;;;;;0.50;0.50;;;17.40;54.80;;;;;;5014840;28;20494;-76
2022/06/16 00:04:05;;;;;;;0.90;0.60;;;17.40;54.80;;;;;;4997638;28;20149;-74
2022/06/16 00:06:31;;;;;;;0.70;0.50;;;17.40;54.90;;;;;;4997256;28;20030;-76
2022/06/16 00:08:57;;;;;;;1.38;0.70;;;17.30;54.90;;;;;;5014929;28;20042;-76
2022/06/16 00:11:23;;;;;;;0.52;0.50;;;17.20;54.80;;;;;;5014914;28;20115;-76
2022/06/16 00:13:51;;;;;;;0.93;0.50;;;17.30;55.50;;;;;;4997042;28;20576;-76
2022/06/16 00:16:19;;;;;;;0.50;0.50;;;17.30;54.90;;;;;;5014435;28;20490;-75
2022/06/16 00:18:45;;;;;;;0.68;0.63;;;17.30;55.00;;;;;;4996868;28;20076;-75
2022/06/16 00:21:12;;;;;;;0.65;0.65;;;17.20;55.00;;;;;;4996655;28;20401;-76
2022/06/16 00:23:38;;;;;;;1.02;0.60;;;17.20;55.00;;;;;;5014798;28;20128;-76
2022/06/16 00:26:10;;;;;;;0.93;0.65;;;17.20;55.10;;;;;;5014285;28;20065;-75
2022/06/16 00:28:36;;;;;;;1.15;0.65;;;17.10;55.00;;;;;;4996665;28;20112;-75
2022/06/16 00:31:06;;;;;;;1.48;0.47;;;17.10;55.10;;;;;;5014803;28;20042;-77
2022/06/16 00:33:32;;;;;;;0.85;0.60;;;17.10;55.10;;;;;;4980412;28;20490;-76
2022/06/16 00:35:58;;;;;;;0.70;0.70;;;17.00;55.10;;;;;;4996615;28;20049;-77
2022/06/16 00:38:24;;;;;;;0.80;0.60;;;17.00;55.20;;;;;;5014210;28;20041;-76
2022/06/16 00:40:51;;;;;;;0.60;0.60;;;17.00;55.30;;;;;;5014611;28;20042;-77
2022/06/16 00:43:17;;;;;;;0.75;0.60;;;16.90;55.40;;;;;;5014035;28;20042;-77
2022/06/16 00:45:50;;;;;;;0.50;0.50;;;16.90;55.50;;;;;;4995282;28;20045;-76
2022/06/16 00:48:25;;;;;;;1.15;0.55;;;16.90;55.60;;;;;;5014248;28;20057;-76
2022/06/16 00:51:03;;;;;;;1.35;0.73;;;16.80;55.60;;;;;;4981934;28;20551;-76
2022/06/16 00:53:29;;;;;;;0.57;0.50;;;16.70;55.70;;;;;;4997477;28;20045;-77
2022/06/16 00:55:58;;;;;;;0.50;0.50;;;16.70;55.80;;;;;;5013828;28;20064;-76
2022/06/16 00:58:25;;;;;;;1.35;0.60;;;16.60;55.90;;;;;;5013930;28;20069;-77
2022/06/16 01:00:52;;;;;;;0.95;0.60;;;16.70;55.90;;;;;;5013838;28;20081;-76
2022/06/16 01:04:51;;;;;;;0.40;0.40;;;16.60;55.90;;;;;;4996304;28;20133;-76
2022/06/16 01:06:19;;;;;;;0.70;0.70;;;16.50;55.90;;;;;;5013109;28;20835;-76
2022/06/16 01:08:47;;;;;;;0.60;0.60;;;16.60;56.10;;;;;;5013634;28;20037;-76
2022/06/16 01:14:26;;;;;;;0.60;0.60;;;16.40;56.10;;;;;;5013616;28;20379;-76
2022/06/16 01:16:58;;;;;;;0.63;0.40;;;16.40;56.20;;;;;;4995492;28;20069;-77
2022/06/16 01:19:56;;;;;;;0.40;0.40;;;16.30;56.20;;;;;;4977850;28;20042;-77
2022/06/16 01:22:48;;;;;;;0.57;0.40;;;16.30;56.30;;;;;;4999718;28;20042;-76
2022/06/16 01:25:36;;;;;;;0.40;0.40;;;16.30;56.30;;;;;;4996242;28;20037;-76
2022/06/16 01:28:28;;;;;;;0.93;0.57;;;16.20;56.30;;;;;;5013532;28;20038;-76
2022/06/16 01:31:02;;;;;;;0.40;0.40;;;16.20;56.30;;;;;;4997547;28;20046;-76
2022/06/16 01:33:40;;;;;;;0.47;0.47;;;16.20;56.40;;;;;;4995807;28;20037;-76
2022/06/16 01:36:19;;;;;;;0.77;0.50;;;16.20;56.40;;;;;;4995829;28;20042;-77
2022/06/16 01:38:56;;;;;;;0.40;0.40;;;16.10;56.40;;;;;;4978985;28;20068;-76
2022/06/16 01:41:39;;;;;;;0.70;0.50;;;16.10;56.50;;;;;;4996729;28;20050;-76
2022/06/16 01:44:38;;;;;;;0.45;0.45;;;16.00;56.50;;;;;;4996404;28;20121;-77
2022/06/16 01:47:10;;;;;;;0.68;0.50;;;16.00;56.60;;;;;;4978155;28;20042;-77
2022/06/16 01:49:43;;;;;;;0.38;0.38;;;16.00;56.60;;;;;;4995328;28;20049;-76
2022/06/16 01:52:14;;;;;;;0.77;0.38;;;16.00;56.70;;;;;;5013119;28;20183;-76
2022/06/16 01:54:47;;;;;;;0.40;0.40;;;15.90;56.80;;;;;;4995316;28;20053;-76
2022/06/16 01:57:23;;;;;;;0.30;0.30;;;15.90;56.80;;;;;;5012922;28;20042;-76
2022/06/16 02:00:00;;;;;;;0.50;0.50;;;15.90;56.90;;;;;;4993942;28;20490;-76
2022/06/16 02:02:30;;;;;;;0.40;0.40;;;15.80;56.90;;;;;;5012657;28;20060;-76
2022/06/16 02:05:20;;;;;;;1.10;0.45;;;15.80;57.00;;;;;;4995170;28;20045;-76
2022/06/16 02:07:54;;;;;;;0.65;0.60;;;15.70;57.10;;;;;;5012963;28;20100;-76
2022/06/16 02:10:25;;;;;;;0.80;0.60;;;15.60;57.20;;;;;;5012813;28;20088;-75
2022/06/16 02:12:56;;;;;;;0.60;0.60;;;15.60;57.40;;;;;;5012935;28;20076;-76
2022/06/16 02:15:41;;;;;;;0.50;0.50;;;15.50;57.40;;;;;;4993633;28;20050;-77
2022/06/16 02:18:13;;;;;;;0.57;0.45;;;15.50;57.50;;;;;;5012525;28;20081;-77
2022/06/16 02:20:55;;;;;;;0.50;0.50;;;15.50;57.50;;;;;;5012321;28;20073;-76
2022/06/16 02:23:20;;;;;;;0.68;0.60;;;15.40;57.50;;;;;;4995036;28;20386;-76
2022/06/16 02:25:51;;;;;;;0.57;0.57;;;15.40;57.60;;;;;;4994565;28;20049;-76
2022/06/16 02:28:16;;;;;;;0.55;0.50;;;15.40;57.80;;;;;;4995487;28;20478;-76
2022/06/16 02:30:58;;;;;;;0.55;0.55;;;15.30;57.80;;;;;;4994056;28;20115;-76
2022/06/16 02:33:38;;;;;;;0.38;0.38;;;15.30;57.90;;;;;;4994742;28;20378;-76
2022/06/16 02:36:24;;;;;;;0.52;0.50;;;15.30;57.90;;;;;;4954488;28;20043;-77
2022/06/16 02:39:06;;;;;;;0.55;0.50;;;15.30;57.90;;;;;;4939376;28;20042;-77
2022/06/16 02:41:52;;;;;;;0.60;0.60;;;15.20;58.00;;;;;;4971204;28;20065;-76
2022/06/16 02:44:47;;;;;;;1.15;0.60;;;15.20;58.10;;;;;;4938518;28;20043;-77
2022/06/16 02:47:44;;;;;;;0.40;0.40;;;15.10;58.10;;;;;;4971036;28;20487;-76
2022/06/16 02:50:18;;;;;;;1.33;0.52;;;15.10;58.10;;;;;;4971678;28;20050;-76
2022/06/16 02:52:50;;;;;;;0.82;0.52;;;15.10;58.20;;;;;;4939397;28;20434;-76
2022/06/16 02:55:27;;;;;;;1.05;0.50;;;15.00;58.20;;;;;;4970889;28;20051;-76
2022/06/16 02:57:57;;;;;;;0.57;0.47;;;14.90;58.40;;;;;;4955795;28;20137;-76
2022/06/16 03:00:29;;;;;;;0.35;0.35;;;15.10;58.50;;;;;;4970997;28;20093;-77
2022/06/16 03:02:55;;;;;;;0.43;0.38;;;14.90;58.50;;;;;;4971074;28;20186;-76
2022/06/16 03:05:21;;;;;;;0.52;0.43;;;14.90;58.50;;;;;;4970829;28;20126;-76
2022/06/16 03:07:46;;;;;;;0.65;0.40;;;14.90;58.60;;;;;;4986326;28;20037;-76
2022/06/16 03:10:50;;;;;;;0.65;0.50;;;14.90;58.70;;;;;;4994050;28;20045;-76
2022/06/16 03:13:01;;;;;;;0.70;0.47;;;14.80;58.60;;;;;;5011535;28;20188;-76
2022/06/16 03:15:26;;;;;;;0.50;0.50;;;14.80;58.70;;;;;;5011986;28;20073;-77
2022/06/16 03:17:52;;;;;;;0.40;0.40;;;14.80;58.70;;;;;;5011807;28;20472;-77
2022/06/16 03:20:18;;;;;;;2.15;0.47;;;14.80;58.70;;;;;;5011675;28;20061;-77
2022/06/16 03:22:43;;;;;;;0.55;0.40;;;14.80;58.80;;;;;;4961879;28;20042;-76
2022/06/16 03:25:11;;;;;;;0.30;0.30;;;14.70;58.80;;;;;;4992630;28;20126;-76
2022/06/16 03:27:37;;;;;;;0.50;0.50;;;14.70;58.80;;;;;;5011554;28;20049;-76
2022/06/16 03:30:04;;;;;;;0.82;0.50;;;14.70;58.90;;;;;;5011657;28;21121;-76
2022/06/16 03:32:29;;;;;;;0.45;0.40;;;14.70;59.00;;;;;;5011514;28;20045;-76
2022/06/16 03:34:55;;;;;;;0.55;0.50;;;14.60;59.10;;;;;;5011507;28;20037;-76
2022/06/16 03:37:23;;;;;;;0.52;0.50;;;14.60;59.10;;;;;;4994193;28;20069;-76
2022/06/16 03:39:49;;;;;;;0.40;0.40;;;14.50;59.10;;;;;;4977271;28;20039;-76
2022/06/16 03:42:15;;;;;;;0.43;0.43;;;14.60;59.20;;;;;;4993752;28;20400;-76
2022/06/16 03:44:41;;;;;;;0.52;0.50;;;14.60;59.20;;;;;;5011219;28;20436;-77
2022/06/16 03:47:08;;;;;;;0.52;0.47;;;14.50;59.20;;;;;;4993330;28;20532;-76
2022/06/16 03:49:34;;;;;;;0.50;0.50;;;14.60;59.30;;;;;;5011353;28;20045;-76
2022/06/16 03:51:59;;;;;;;0.45;0.45;;;14.50;59.30;;;;;;5011453;28;20041;-76
2022/06/16 03:54:25;;;;;;;0.30;0.30;;;14.50;59.30;;;;;;5011507;28;20494;-76
2022/06/16 03:56:51;;;;;;;0.50;0.40;;;14.50;59.30;;;;;;5011892;28;20133;-76
2022/06/16 03:59:21;;;;;;;0.40;0.40;;;14.50;59.30;;;;;;5011474;28;20046;-76
2022/06/16 04:01:47;;;;;;;0.30;0.30;;;14.60;59.40;;;;;;4992455;28;20081;-76
2022/06/16 04:04:13;;;;;;;0.30;0.30;;;14.50;59.40;;;;;;5011328;28;20042;-76
2022/06/16 04:06:39;;;;;;;0.40;0.35;;;14.40;59.40;;;;;;5011601;28;20040;-77
2022/06/16 04:09:05;;;;;;;0.47;0.40;;;14.40;59.40;;;;;;4993627;28;20046;-76
2022/06/16 04:11:31;;;;;;;0.60;0.50;;;14.40;59.50;;;;;;5014839;28;20038;-76
2022/06/16 04:14:07;;;;;;;0.28;0.28;;;14.40;59.50;;;;;;5014939;28;20442;-76
2022/06/16 04:16:37;;;;;;;0.52;0.40;;;14.40;59.50;;;;;;4980496;28;20462;-76
2022/06/16 04:19:04;;;;;;;0.60;0.50;;;14.40;59.50;;;;;;5013057;28;20056;-76
2022/06/16 04:21:30;;;;;;;0.30;0.30;;;14.40;59.50;;;;;;4995702;28;20387;-77
2022/06/16 04:23:56;;;;;;;0.30;0.30;;;14.40;59.50;;;;;;5014781;28;20038;-76
2022/06/16 04:26:23;;;;;;;0.40;0.40;;;14.40;59.60;;;;;;5014710;28;20037;-77
2022/06/16 04:28:49;;;;;;;0.30;0.30;;;14.40;59.70;;;;;;5015112;28;20060;-76
2022/06/16 04:31:15;;;;;;;0.30;0.30;;;14.40;59.70;;;;;;4976996;28;20050;-76
2022/06/16 04:33:41;;;;;;;0.40;0.40;;;14.40;59.80;;;;;;4980644;28;20038;-76
2022/06/16 04:36:08;;;;;;;0.40;0.40;;;14.50;59.90;;;;;;4980802;28;20180;-76
2022/06/16 04:38:34;;;;;;;0.60;0.55;;;14.30;59.80;;;;;;5014286;28;20041;-77
2022/06/16 04:41:01;;;;;;;0.38;0.35;;;14.40;59.90;;;;;;5014188;28;20038;-77
2022/06/16 04:43:28;;;;;;;1.23;0.40;;;14.30;60.00;;;;;;5014601;28;20049;-76
2022/06/16 04:45:55;;;;;;;0.40;0.40;;;14.40;60.00;;;;;;5014109;28;20042;-76
2022/06/16 04:48:21;;;;;;;0.30;0.30;;;14.30;60.00;;;;;;4997666;28;20065;-77
2022/06/16 04:50:47;;;;;;;0.40;0.40;;;14.40;60.20;;;;;;5014334;28;20045;-77
2022/06/16 04:53:13;;;;;;;0.95;0.40;;;14.50;60.30;;;;;;5013953;28;20042;-77
2022/06/16 04:55:38;;;;;;;0.65;0.45;;;14.50;60.20;;;;;;4996605;28;20046;-76
2022/06/16 04:58:05;;;;;;;0.50;0.50;;;14.50;60.10;;;;;;4995468;28;20101;-76
2022/06/16 05:00:31;;;;;;;1.08;0.50;;;14.70;60.10;;;;;;4996823;28;20097;-76
2022/06/16 05:02:57;;;;;;;0.38;0.38;;;14.70;60.00;;;;;;5013863;28;20437;-76
2022/06/16 05:05:23;;;;;;;0.40;0.40;;;14.70;59.80;;;;;;4996086;28;20120;-76
2022/06/16 05:07:50;;;;;;;0.40;0.40;;;14.70;59.80;;;;;;5013721;28;20042;-76
2022/06/16 05:10:16;;;;;;;0.50;0.50;;;14.80;59.90;;;;;;4996121;28;20108;-76
2022/06/16 05:12:41;;;;;;;1.80;0.70;;;14.90;59.80;;;;;;5013613;28;20473;-76
2022/06/16 05:15:07;;;;;;;0.30;0.30;;;15.00;59.80;;;;;;4996654;28;20042;-76
2022/06/16 05:17:34;;;;;;;0.63;0.40;;;15.00;59.60;;;;;;5013547;28;20092;-77
2022/06/16 05:19:59;;;;;;;0.40;0.40;;;15.00;59.50;;;;;;5011481;28;20054;-77
2022/06/16 05:22:25;;;;;;;0.60;0.40;;;15.20;59.50;;;;;;5013848;28;20179;-77
2022/06/16 05:24:51;;;;;;;0.40;0.40;;;15.40;59.50;;;;;;4997402;28;20049;-76
2022/06/16 05:27:17;;;;;;;0.38;0.38;;;15.40;59.30;;;;;;4979786;28;20045;-77
2022/06/16 05:29:43;;;;;;;0.50;0.50;;;15.50;59.20;;;;;;5013626;28;20034;-76
2022/06/16 05:32:10;;;;;;;0.43;0.43;;;15.60;59.10;;;;;;4995973;28;20449;-77
2022/06/16 05:34:37;;;;;;;0.95;0.50;;;15.70;59.10;;;;;;4992266;28;20544;-77
2022/06/16 05:37:04;;;;;;;0.40;0.40;;;15.80;59.00;;;;;;5013932;28;20078;-77
2022/06/16 05:39:30;;;;;;;0.55;0.50;;;15.80;58.90;;;;;;5013975;28;20133;-76
2022/06/16 05:41:56;;;;;;;0.40;0.40;;;15.90;58.90;;;;;;4995985;28;20070;-76
2022/06/16 05:44:25;;;;;;;0.77;0.65;;;16.00;58.80;;;;;;4995834;28;20038;-76
2022/06/16 05:46:51;;;;;;;0.52;0.40;;;16.10;58.80;;;;;;4979605;28;20065;-77
2022/06/16 05:49:18;;;;;;;0.55;0.50;;;16.10;58.80;;;;;;4994854;28;20050;-77
2022/06/16 05:51:44;;;;;;;0.28;0.25;;;16.20;58.80;;;;;;4995933;28;20449;-78
2022/06/16 05:54:11;;;;;;;0.45;0.45;;;16.30;58.80;;;;;;4979579;28;20076;-77
2022/06/16 05:56:39;;;;;;;0.28;0.28;;;16.40;58.70;;;;;;4979182;28;20129;-77
2022/06/16 05:59:05;;;;;;;0.63;0.30;;;16.50;58.80;;;;;;5013725;28;20122;-76
2022/06/16 06:01:30;;;;;;;0.30;0.30;;;16.50;58.70;;;;;;5013980;28;20489;-77
2022/06/16 06:03:56;;;;;;;0.30;0.30;;;16.60;58.70;;;;;;4995383;28;20132;-76
2022/06/16 06:06:22;;;;;;;1.02;0.30;;;16.70;58.60;;;;;;5013539;28;20034;-76
2022/06/16 06:16:58;;;;;;;0.20;0.20;;;16.90;58.30;;;;;;5016725;28;20057;-75
2022/06/16 06:19:24;;;;;;;0.20;0.20;;;17.10;58.30;;;;;;5014909;28;20061;-76
2022/06/16 06:21:58;;;;;;;0.30;0.30;;;17.20;58.20;;;;;;4996010;28;20054;-76
2022/06/16 06:24:25;;;;;;;0.30;0.30;;;17.20;58.10;;;;;;4996246;28;20112;-76
2022/06/16 06:26:53;;;;;;;0.55;0.30;;;17.30;58.00;;;;;;5013204;28;20053;-75
2022/06/16 06:29:19;;;;;;;0.25;0.22;;;17.40;57.80;;;;;;4994960;28;20437;-76
2022/06/16 06:31:45;;;;;;;0.45;0.28;;;17.60;57.70;;;;;;5013410;28;20080;-76
2022/06/16 06:34:11;;;;;;;0.20;0.20;;;17.50;57.50;;;;;;5010501;28;20076;-76
2022/06/16 06:36:37;;;;;;;0.40;0.20;;;17.60;57.30;;;;;;4994887;28;20049;-75
2022/06/16 06:39:03;;;;;;;0.30;0.30;;;17.70;57.10;;;;;;4978655;28;20080;-77
2022/06/16 06:41:29;;;;;;;0.30;0.30;;;17.80;57.10;;;;;;4995190;28;20039;-76
2022/06/16 06:43:55;;;;;;;0.35;0.30;;;17.90;56.90;;;;;;4994975;28;20589;-77
2022/06/16 06:46:21;;;;;;;0.30;0.30;;;18.00;56.80;;;;;;5012564;28;20195;-77
2022/06/16 06:48:47;;;;;;;0.30;0.30;;;18.10;56.70;;;;;;4978725;28;20042;-76
2022/06/16 06:51:13;;;;;;;0.20;0.20;;;18.30;56.60;;;;;;4994970;28;20441;-76
2022/06/16 06:53:38;;;;;;;0.57;0.30;;;18.40;56.40;;;;;;5012727;28;20064;-77
2022/06/16 06:56:04;;;;;;;0.40;0.40;;;18.40;56.20;;;;;;4961147;28;20121;-77
2022/06/16 06:58:32;;;;;;;0.55;0.40;;;18.50;56.10;;;;;;5012511;28;20042;-77
2022/06/16 07:01:01;;;;;;;0.30;0.30;;;18.70;56.00;;;;;;4994700;28;20038;-78
2022/06/16 07:03:28;;;;;;;0.20;0.20;;;18.80;55.90;;;;;;4994739;28;20037;-79
2022/06/16 07:05:54;;;;;;;0.30;0.30;;;19.00;55.60;;;;;;4994369;28;20060;-78
2022/06/16 07:08:20;;;;;;;0.60;0.40;;;19.20;55.50;;;;;;5012581;28;20103;-79
2022/06/16 07:10:46;;;;;;;1.13;0.30;;;19.40;55.10;;;;;;4994617;28;20073;-79
2022/06/16 07:13:12;;;;;;;1.10;0.38;;;19.50;54.90;;;;;;4994657;28;20084;-79
2022/06/16 07:15:38;;;;;;;0.77;0.30;;;19.80;54.80;;;;;;5011767;28;20502;-78
2022/06/16 07:18:05;;;;;;;1.42;0.60;;;20.10;54.50;;;;;;5012144;28;20034;-79
2022/06/16 07:20:32;;;;;;;0.77;0.40;;;20.10;54.30;;;;;;4992374;28;20430;-79
2022/06/16 07:22:58;;;;;;;0.20;0.20;;;20.30;54.20;;;;;;5011917;28;20042;-79
2022/06/16 07:25:24;;;;;;;0.30;0.30;;;20.50;54.00;;;;;;5011926;28;20108;-80
2022/06/16 07:27:50;;;;;;;0.30;0.30;;;20.60;53.80;;;;;;4992362;28;20083;-78
2022/06/16 07:30:18;;;;;;;1.13;0.40;;;20.80;53.70;;;;;;4978196;28;20061;-79
2022/06/16 07:32:46;;;;;;;0.57;0.28;;;21.00;53.60;;;;;;4977989;28;20047;-79
2022/06/16 07:35:14;;;;;;;0.57;0.38;;;21.10;53.60;;;;;;5011741;28;20046;-80
2022/06/16 07:37:40;;;;;;;0.77;0.38;;;21.30;53.40;;;;;;5012471;28;20046;-80
2022/06/16 07:40:09;;;;;;;0.60;0.30;;;21.30;53.30;;;;;;5012228;28;20041;-81
2022/06/16 07:42:35;;;;;;;0.30;0.30;;;21.40;53.20;;;;;;4992834;28;20038;-81
2022/06/16 07:45:01;;;;;;;0.20;0.20;;;21.50;53.10;;;;;;4978965;28;20044;-81
2022/06/16 07:47:27;;;;;;;0.22;0.22;;;21.70;53.00;;;;;;4998015;28;20041;-80
2022/06/16 07:49:54;;;;;;;0.40;0.40;;;21.80;52.80;;;;;;5015230;28;20106;-80
2022/06/16 07:52:20;;;;;;;0.30;0.30;;;21.90;52.70;;;;;;4997159;28;20141;-79
2022/06/16 07:54:46;;;;;;;0.28;0.28;;;22.00;52.70;;;;;;5015123;28;20124;-81
2022/06/16 07:57:13;;;;;;;0.73;0.40;;;22.10;52.70;;;;;;4981453;28;20045;-81
2022/06/16 07:59:38;;;;;;;0.43;0.30;;;22.30;52.50;;;;;;4995883;28;20436;-81
2022/06/16 08:02:05;;;;;;;1.10;0.40;;;22.30;52.40;;;;;;4997751;28;20128;-79
2022/06/16 08:04:31;;;;;;;0.50;0.50;;;22.40;52.50;;;;;;5017773;28;20084;-80
2022/06/16 08:07:00;;;;;;;0.40;0.32;;;22.40;52.50;;;;;;5017422;28;20038;-81
2022/06/16 08:09:27;;;;;;;1.10;0.40;;;22.60;52.50;;;;;;4998082;28;20096;-81
2022/06/16 08:12:09;;;;;;;0.43;0.38;;;22.80;52.50;;;;;;4979034;28;20034;-81
2022/06/16 08:14:39;;;;;;;0.35;0.35;;;23.00;52.40;;;;;;4999183;28;20042;-81
2022/06/16 08:17:25;;;;;;;0.68;0.43;;;23.10;52.20;;;;;;4996935;28;20128;-80
2022/06/16 08:19:51;;;;;;;0.40;0.40;;;23.20;52.10;;;;;;4998214;28;20042;-80
2022/06/16 08:22:18;;;;;;;0.68;0.40;;;23.40;52.10;;;;;;4996265;28;20607;-80
2022/06/16 08:24:44;;;;;;;0.22;0.22;;;23.60;52.00;;;;;;5014869;28;20038;-80
2022/06/16 08:27:11;;;;;;;0.57;0.38;;;23.70;51.70;;;;;;4978961;28;20481;-80
2022/06/16 08:29:39;;;;;;;0.40;0.40;;;23.80;51.70;;;;;;5014480;28;20050;-79
2022/06/16 08:32:07;;;;;;;0.30;0.30;;;23.90;51.80;;;;;;5014218;28;20056;-80
2022/06/16 08:34:32;;;;;;;0.25;0.25;;;24.00;51.80;;;;;;5014366;28;20120;-79
2022/06/16 08:36:58;;;;;;;0.40;0.40;;;24.10;51.80;;;;;;5014259;28;20447;-79
2022/06/16 08:39:24;;;;;;;0.75;0.30;;;24.30;51.70;;;;;;4996522;28;20053;-77
2022/06/16 08:42:06;;;;;;;0.40;0.40;;;24.40;51.60;;;;;;5012373;28;20397;-79
2022/06/16 08:44:42;;;;;;;0.73;0.30;;;24.40;51.60;;;;;;4980208;28;20053;-80
2022/06/16 08:47:18;;;;;;;0.30;0.30;;;24.50;51.50;;;;;;4994945;28;20042;-79
2022/06/16 08:50:06;;;;;;;0.35;0.35;;;24.40;51.40;;;;;;4994923;28;20069;-78
2022/06/16 08:52:59;;;;;;;0.40;0.40;;;24.60;51.50;;;;;;5014027;28;20126;-80
2022/06/16 08:55:37;;;;;;;1.05;0.60;;;24.60;51.50;;;;;;4996269;28;20049;-79
2022/06/16 08:58:27;;;;;;;0.40;0.40;;;24.60;51.20;;;;;;4996871;28;20065;-81
2022/06/16 09:00:58;;;;;;;1.30;0.40;;;24.70;51.10;;;;;;4998229;28;20129;-80
2022/06/16 09:03:39;;;;;;;0.45;0.45;;;24.70;51.20;;;;;;4996477;28;20600;-80
2022/06/16 09:06:27;;;;;;;0.40;0.40;;;24.70;51.20;;;;;;4995954;28;20405;-80
2022/06/16 09:10:14;;;;;;;0.65;0.50;;;24.70;51.10;;;;;;4996480;28;20367;-81
2022/06/16 09:12:18;;;;;;;0.35;0.35;;;24.80;51.00;;;;;;5013704;28;20046;-80
2022/06/16 09:17:45;;;;;;;0.70;0.50;;;25.10;50.80;;;;;;5011459;28;20394;-79
2022/06/16 09:20:37;;;;;;;0.55;0.50;;;25.00;50.60;;;;;;4964489;28;20041;-78
2022/06/16 09:23:29;;;;;;;0.35;0.35;;;25.00;50.40;;;;;;5014328;28;20080;-80
2022/06/16 09:26:31;;;;;;;0.77;0.47;;;25.00;50.50;;;;;;5013733;28;20061;-81
2022/06/16 09:29:07;;;;;;;0.65;0.40;;;25.10;50.30;;;;;;4996146;28;20034;-79
2022/06/16 09:31:44;;;;;;;0.30;0.30;;;25.10;50.10;;;;;;5014162;28;20049;-80
2022/06/16 09:34:26;;;;;;;0.50;0.50;;;25.20;50.20;;;;;;5013120;28;20053;-79
2022/06/16 09:36:58;;;;;;;0.40;0.40;;;25.30;50.00;;;;;;4996656;28;20065;-79
2022/06/16 09:39:31;;;;;;;0.55;0.43;;;25.30;50.00;;;;;;5011528;28;20038;-79
2022/06/16 09:42:35;;;;;;;0.40;0.40;;;25.30;50.10;;;;;;5013795;28;20038;-79
2022/06/16 09:45:25;;;;;;;0.38;0.38;;;25.30;50.00;;;;;;5013406;28;20069;-78
2022/06/16 09:48:04;;;;;;;0.87;0.30;;;25.30;50.00;;;;;;4996477;28;20041;-76
2022/06/16 09:51:01;;;;;;;0.30;0.30;;;25.50;50.00;;;;;;4980291;28;20116;-78
2022/06/16 09:53:36;;;;;;;0.35;0.35;;;25.50;49.70;;;;;;5012779;28;20049;-77
2022/06/16 09:56:23;;;;;;;0.60;0.60;;;25.60;49.70;;;;;;5013045;28;20046;-78
2022/06/16 09:58:55;;;;;;;0.80;0.52;;;25.60;49.60;;;;;;4994123;28;20062;-79
2022/06/16 10:01:24;;;;;;;0.50;0.50;;;25.60;49.50;;;;;;4995907;28;20053;-78
2022/06/16 10:04:00;;;;;;;0.50;0.50;;;25.60;49.50;;;;;;5014103;28;20038;-77
2022/06/16 10:06:35;;;;;;;0.40;0.40;;;25.60;49.50;;;;;;4994855;28;20486;-78
2022/06/16 10:09:18;;;;;;;0.40;0.40;;;25.70;49.30;;;;;;4994817;28;20084;-77
2022/06/16 10:11:59;;;;;;;0.60;0.60;;;25.70;49.30;;;;;;5014236;28;20045;-76
2022/06/16 10:14:33;;;;;;;0.73;0.60;;;25.80;49.20;;;;;;4994340;28;20490;-77
2022/06/16 10:17:04;;;;;;;0.88;0.50;;;25.70;49.20;;;;;;4995073;28;20050;-78
2022/06/16 10:19:38;;;;;;;0.50;0.50;;;25.80;49.10;;;;;;4995881;28;20049;-78
2022/06/16 10:22:05;;;;;;;0.40;0.40;;;25.80;49.10;;;;;;4995616;28;20049;-78
2022/06/16 10:24:38;;;;;;;0.63;0.60;;;25.80;49.00;;;;;;4995534;28;20045;-78
2022/06/16 10:27:04;;;;;;;0.50;0.50;;;25.80;48.90;;;;;;4993687;28;20046;-76
2022/06/16 10:29:33;;;;;;;0.82;0.60;;;25.80;49.00;;;;;;5014282;28;20050;-78
2022/06/16 10:32:01;;;;;;;0.50;0.50;;;25.80;49.50;;;;;;4997050;28;20042;-77
2022/06/16 10:34:34;;;;;;;0.60;0.50;;;25.90;48.80;;;;;;4977512;28;20045;-77
2022/06/16 10:37:18;;;;;;;0.45;0.45;;;26.00;48.80;;;;;;5013265;28;20046;-76
2022/06/16 10:39:57;;;;;;;0.65;0.32;;;26.10;48.70;;;;;;5012950;28;20096;-76
2022/06/16 10:42:40;;;;;;;0.60;0.60;;;26.10;48.40;;;;;;4994968;28;20042;-76
2022/06/16 10:45:13;;;;;;;0.68;0.40;;;26.10;48.40;;;;;;4998487;28;20552;-77
2022/06/16 10:47:55;;;;;;;0.85;0.60;;;26.20;48.40;;;;;;4996856;28;20035;-77
2022/06/16 10:50:28;;;;;;;0.40;0.40;;;26.30;48.30;;;;;;5014080;28;20061;-77
2022/06/16 10:53:01;;;;;;;0.40;0.40;;;26.40;48.20;;;;;;4994647;28;20033;-75
2022/06/16 10:55:34;;;;;;;0.40;0.40;;;26.40;48.20;;;;;;4995212;28;20066;-75
2022/06/16 10:58:23;;;;;;;0.60;0.60;;;26.40;48.20;;;;;;5012361;28;20102;-75
2022/06/16 11:01:16;;;;;;;1.02;0.50;;;26.40;48.10;;;;;;5012042;28;20589;-79
2022/06/16 11:03:45;;;;;;;0.75;0.65;;;26.40;48.10;;;;;;4977109;28;20121;-78
2022/06/16 11:06:14;;;;;;;0.77;0.70;;;26.40;48.20;;;;;;5012414;28;20038;-78
2022/06/16 11:08:45;;;;;;;0.60;0.60;;;26.30;48.20;;;;;;5011997;28;20501;-78
2022/06/16 11:11:11;;;;;;;0.40;0.40;;;26.20;48.10;;;;;;4990749;28;20046;-79
2022/06/16 11:13:45;;;;;;;0.65;0.60;;;26.10;48.10;;;;;;4994443;28;20504;-78
2022/06/16 11:16:24;;;;;;;0.45;0.45;;;26.10;48.10;;;;;;5012703;28;20092;-78
2022/06/16 11:18:53;;;;;;;0.55;0.55;;;26.10;48.10;;;;;;5012105;28;20120;-79
2022/06/16 11:21:24;;;;;;;0.60;0.50;;;26.00;48.10;;;;;;5011797;28;20095;-78
2022/06/16 11:23:52;;;;;;;0.60;0.60;;;26.10;48.10;;;;;;4978199;28;20038;-79
2022/06/16 11:26:24;;;;;;;0.40;0.40;;;26.10;48.00;;;;;;5011854;28;20042;-78
2022/06/16 11:28:55;;;;;;;0.63;0.40;;;26.10;47.90;;;;;;4993419;28;20050;-77
2022/06/16 11:31:25;;;;;;;1.45;0.50;;;26.10;47.90;;;;;;4996018;28;20061;-77
2022/06/16 11:34:18;;;;;;;0.47;0.47;;;26.10;48.00;;;;;;4994140;28;20498;-79
2022/06/16 11:37:24;;;;;;;0.52;0.52;;;26.10;48.00;;;;;;5012181;28;20111;-78
2022/06/16 11:40:04;;;;;;;0.40;0.40;;;26.20;47.90;;;;;;4994489;28;20406;-79
2022/06/16 11:43:05;;;;;;;0.47;0.40;;;26.20;47.80;;;;;;4994573;28;20034;-79
2022/06/16 11:45:39;;;;;;;0.68;0.40;;;26.20;47.80;;;;;;4994323;28;20033;-78
2022/06/16 11:48:34;;;;;;;0.50;0.50;;;26.30;48.00;;;;;;4993709;28;20125;-78
2022/06/16 11:51:33;;;;;;;0.80;0.47;;;26.20;47.60;;;;;;5012026;28;20041;-79
2022/06/16 11:54:23;;;;;;;0.40;0.40;;;26.20;47.70;;;;;;5011383;28;20494;-79
2022/06/16 11:57:24;;;;;;;0.43;0.43;;;26.20;47.80;;;;;;5011254;28;20121;-78
2022/06/16 11:59:56;;;;;;;;;;;26.20;47.70;;;;;;4991714;28;20042;-79
2022/06/16 12:02:58;;;;;;;0.35;0.35;;;26.20;47.90;;;;;;5009195;28;20369;-79
2022/06/16 12:05:43;;;;;;;0.75;0.60;;;26.20;47.90;;;;;;4981490;28;20038;-78
2022/06/16 12:08:25;;;;;;;0.50;0.50;;;26.30;47.70;;;;;;5011659;28;20111;-79
2022/06/16 12:11:04;;;;;;;0.43;0.43;;;26.30;47.60;;;;;;5011441;28;20033;-78
2022/06/16 12:13:52;;;;;;;0.50;0.50;;;26.30;47.60;;;;;;5011397;28;20048;-79
2022/06/16 12:16:29;;;;;;;1.13;0.70;;;26.30;47.50;;;;;;5011421;28;20041;-79
2022/06/16 12:19:25;;;;;;;0.63;0.63;;;26.20;47.40;;;;;;5011434;28;20552;-79
2022/06/16 12:22:02;;;;;;;0.47;0.47;;;26.10;47.50;;;;;;5010977;28;20114;-79
2022/06/16 12:24:38;;;;;;;0.55;0.50;;;26.10;47.80;;;;;;5012018;28;20044;-76
2022/06/16 12:27:12;;;;;;;0.52;0.50;;;26.10;47.80;;;;;;5012049;28;20042;-77
2022/06/16 12:29:56;;;;;;;0.43;0.43;;;26.20;47.80;;;;;;5013893;28;20104;-76
2022/06/16 12:32:56;;;;;;;0.32;0.32;;;26.30;47.70;;;;;;5017091;28;20065;-76
2022/06/16 12:35:33;;;;;;;0.47;0.40;;;26.40;47.50;;;;;;5015086;28;20041;-77
2022/06/16 12:38:05;;;;;;;0.50;0.50;;;26.40;47.60;;;;;;5014374;28;20045;-77
2022/06/16 12:40:44;;;;;;;0.50;0.50;;;26.30;47.60;;;;;;4996509;28;20065;-78
2022/06/16 12:43:21;;;;;;;0.38;0.38;;;26.00;47.80;;;;;;5014803;28;20470;-78
2022/06/16 12:45:53;;;;;;;0.30;0.30;;;25.80;48.20;;;;;;4996392;28;20041;-77
2022/06/16 12:48:26;;;;;;;0.50;0.50;;;25.70;48.50;;;;;;5014445;28;20046;-77
2022/06/16 12:50:58;;;;;;;0.43;0.43;;;25.70;48.50;;;;;;4996362;28;20413;-76
2022/06/16 12:53:35;;;;;;;0.50;0.47;;;25.90;48.20;;;;;;5013960;28;20053;-77
2022/06/16 12:56:08;;;;;;;0.43;0.43;;;25.80;47.80;;;;;;5013675;28;20084;-77
2022/06/16 12:58:41;;;;;;;0.50;0.50;;;25.90;47.90;;;;;;4996515;28;20078;-77
2022/06/16 13:01:11;;;;;;;0.40;0.40;;;25.80;47.80;;;;;;4994925;28;20093;-78
2022/06/16 13:03:47;;;;;;;0.50;0.50;;;25.70;47.90;;;;;;5014851;28;20042;-78
2022/06/16 13:06:17;;;;;;;0.50;0.50;;;25.70;48.00;;;;;;4965010;28;20038;-78
2022/06/16 13:08:47;;;;;;;0.52;0.50;;;25.60;48.90;;;;;;5013879;28;20528;-77
2022/06/16 13:11:15;;;;;;;;;;;25.50;48.40;;;;;;4995577;28;20112;-78
2022/06/16 13:13:45;;;;;;;0.43;0.43;;;25.50;48.50;;;;;;4996255;28;19913;-77
2022/06/16 13:16:14;;;;;;;;;;;25.40;48.50;;;;;;5014196;28;20049;-78
2022/06/16 13:18:45;;;;;;;0.75;0.50;;;25.40;48.60;;;;;;5013641;28;19913;-79
2022/06/16 13:21:21;;;;;;;0.60;0.35;;;25.30;48.50;;;;;;5010860;28;20046;-78
2022/06/16 13:23:50;;;;;;;0.50;0.50;;;25.30;48.40;;;;;;4979909;28;20133;-78
2022/06/16 13:26:21;;;;;;;0.50;0.50;;;25.30;48.40;;;;;;5013760;28;20121;-78
2022/06/16 13:28:58;;;;;;;0.47;0.47;;;25.40;48.40;;;;;;5011491;28;20177;-79
2022/06/16 13:31:46;;;;;;;0.40;0.40;;;25.50;48.30;;;;;;4996221;28;20132;-78